createdAt,value
2022-12-03T00:00:12.343Z,958.97
2022-12-03T00:01:07.866Z,958.95
2022-12-03T00:03:08.179Z,958.96
2022-12-03T00:04:07.964Z,958.97
2022-12-03T00:05:07.949Z,958.92
2022-12-03T00:06:07.957Z,958.97
2022-12-03T00:07:09.221Z,958.99
2022-12-03T00:08:08.005Z,959
2022-12-03T00:09:07.928Z,959.02
2022-12-03T00:10:07.988Z,959.04
2022-12-03T00:11:07.957Z,959.02
2022-12-03T00:12:07.923Z,958.99
2022-12-03T00:13:09.255Z,958.96
2022-12-03T00:14:07.958Z,958.98
2022-12-03T00:16:09.329Z,958.99
2022-12-03T00:18:07.928Z,958.94
2022-12-03T00:19:07.903Z,959.02
2022-12-03T00:20:07.879Z,958.97
2022-12-03T00:22:08.009Z,958.99
2022-12-03T00:23:07.975Z,958.92
2022-12-03T00:24:08.032Z,958.91
2022-12-03T00:25:07.874Z,958.89
2022-12-03T00:26:07.883Z,958.9
2022-12-03T00:27:08.048Z,958.91
2022-12-03T00:28:08.012Z,958.84
2022-12-03T00:29:07.881Z,958.89
2022-12-03T00:31:08.059Z,958.86
2022-12-03T00:32:07.891Z,958.87
2022-12-03T00:33:07.889Z,958.88
2022-12-03T00:35:07.897Z,958.85
2022-12-03T00:38:07.921Z,958.89
2022-12-03T00:39:07.918Z,958.84
2022-12-03T00:40:07.920Z,958.87
2022-12-03T00:41:07.918Z,958.86
2022-12-03T00:42:07.923Z,958.82
2022-12-03T00:43:07.932Z,958.86
2022-12-03T00:44:07.982Z,958.82
2022-12-03T00:45:08.075Z,958.81
2022-12-03T00:46:08.023Z,958.78
2022-12-03T00:47:08.018Z,958.79
2022-12-03T00:48:07.931Z,958.76
2022-12-03T00:49:08.041Z,958.77
2022-12-03T00:51:07.924Z,958.8
2022-12-03T00:52:07.942Z,958.81
2022-12-03T00:53:08.007Z,958.85
2022-12-03T00:54:08.067Z,958.84
2022-12-03T00:55:07.964Z,958.83
2022-12-03T00:57:08.072Z,958.87
2022-12-03T00:58:07.970Z,958.83
2022-12-03T00:59:08.040Z,958.84
2022-12-03T01:00:08.076Z,958.83
2022-12-03T01:01:08.075Z,958.82
2022-12-03T01:02:08.062Z,958.8
2022-12-03T01:03:07.965Z,958.78
2022-12-03T01:04:07.999Z,958.76
2022-12-03T01:05:08.175Z,958.8
2022-12-03T01:07:08.054Z,958.81
2022-12-03T01:10:08.108Z,958.8
2022-12-03T01:13:08.003Z,958.82
2022-12-03T01:14:07.992Z,958.8
2022-12-03T01:15:08.099Z,958.83
2022-12-03T01:16:08.105Z,958.84
2022-12-03T01:17:08.136Z,958.8
2022-12-03T01:18:08.101Z,958.83
2022-12-03T01:20:09.065Z,958.84
2022-12-03T01:21:08.120Z,958.85
2022-12-03T01:22:08.082Z,958.88
2022-12-03T01:23:08.019Z,958.87
2022-12-03T01:24:08.115Z,958.84
2022-12-03T01:25:08.058Z,958.83
2022-12-03T01:27:08.115Z,958.86
2022-12-03T01:28:08.111Z,958.87
2022-12-03T01:31:08.089Z,958.89
2022-12-03T01:32:08.163Z,958.92
2022-12-03T01:33:08.045Z,958.9
2022-12-03T01:34:08.041Z,958.88
2022-12-03T01:35:08.040Z,958.93
2022-12-03T01:36:08.152Z,958.94
2022-12-03T01:37:08.196Z,958.92
2022-12-03T01:38:08.165Z,958.95
2022-12-03T01:39:08.041Z,958.93
2022-12-03T01:41:11.633Z,958.94
2022-12-03T01:42:08.290Z,958.98
2022-12-03T01:43:08.063Z,958.95
2022-12-03T01:44:08.078Z,958.94
2022-12-03T01:45:08.147Z,958.95
2022-12-03T01:46:08.225Z,959
2022-12-03T01:47:08.155Z,959.02
2022-12-03T01:48:08.095Z,959
2022-12-03T01:49:08.074Z,959.02
2022-12-03T01:51:08.077Z,959.05
2022-12-03T01:52:08.224Z,959.08
2022-12-03T01:53:08.086Z,959.11
2022-12-03T01:54:08.150Z,959.13
2022-12-03T01:55:08.224Z,959.08
2022-12-03T01:56:08.170Z,959.1
2022-12-03T01:57:08.085Z,959.11
2022-12-03T01:58:08.091Z,959.07
2022-12-03T01:59:08.102Z,959.09
2022-12-03T02:00:08.268Z,959.13
2022-12-03T02:01:08.099Z,959.08
2022-12-03T02:02:08.157Z,959.1
2022-12-03T02:04:08.260Z,959.06
2022-12-03T02:06:08.277Z,959.05
2022-12-03T02:08:08.240Z,959.02
2022-12-03T02:09:08.187Z,958.98
2022-12-03T02:11:08.133Z,958.91
2022-12-03T02:12:08.206Z,958.99
2022-12-03T02:13:08.251Z,958.96
2022-12-03T02:15:08.227Z,958.98
2022-12-03T02:16:08.183Z,959
2022-12-03T02:17:08.145Z,958.97
2022-12-03T02:19:08.145Z,958.95
2022-12-03T02:20:08.155Z,958.97
2022-12-03T02:21:08.320Z,958.95
2022-12-03T02:22:08.372Z,958.97
2022-12-03T02:23:08.158Z,958.92
2022-12-03T02:24:08.303Z,958.99
2022-12-03T02:25:08.272Z,958.97
2022-12-03T02:26:08.167Z,958.99
2022-12-03T02:27:08.164Z,958.96
2022-12-03T02:28:08.275Z,958.97
2022-12-03T02:29:08.229Z,958.98
2022-12-03T02:30:08.195Z,959.02
2022-12-03T02:32:08.247Z,959.06
2022-12-03T02:33:08.192Z,959.04
2022-12-03T02:34:08.272Z,959.06
2022-12-03T02:35:08.345Z,959.02
2022-12-03T02:36:08.173Z,959.01
2022-12-03T02:37:08.270Z,958.99
2022-12-03T02:38:08.254Z,959.01
2022-12-03T02:39:08.321Z,958.99
2022-12-03T02:41:08.351Z,958.98
2022-12-03T02:42:08.210Z,958.96
2022-12-03T02:43:08.279Z,958.97
2022-12-03T02:44:08.205Z,958.93
2022-12-03T02:45:08.219Z,958.94
2022-12-03T02:46:08.307Z,958.83
2022-12-03T02:47:08.385Z,958.88
2022-12-03T02:48:08.328Z,958.9
2022-12-03T02:49:08.290Z,958.92
2022-12-03T02:50:09.486Z,958.9
2022-12-03T02:51:08.219Z,958.92
2022-12-03T02:52:08.217Z,958.91
2022-12-03T02:53:08.365Z,958.89
2022-12-03T02:54:08.223Z,958.84
2022-12-03T02:55:08.253Z,958.81
2022-12-03T02:56:08.235Z,958.82
2022-12-03T02:57:08.227Z,958.8
2022-12-03T02:58:08.304Z,958.82
2022-12-03T02:59:09.507Z,958.86
2022-12-03T03:00:08.243Z,958.89
2022-12-03T03:01:08.402Z,958.93
2022-12-03T03:02:08.259Z,958.92
2022-12-03T03:03:08.231Z,958.95
2022-12-03T03:04:08.409Z,958.92
2022-12-03T03:05:08.377Z,958.91
2022-12-03T03:06:08.339Z,958.95
2022-12-03T03:07:08.328Z,958.9
2022-12-03T03:08:08.322Z,958.92
2022-12-03T03:09:08.355Z,958.91
2022-12-03T03:10:08.260Z,958.87
2022-12-03T03:11:08.390Z,958.86
2022-12-03T03:12:08.361Z,958.9
2022-12-03T03:13:08.325Z,958.88
2022-12-03T03:14:08.388Z,958.83
2022-12-03T03:15:08.262Z,958.79
2022-12-03T03:17:08.278Z,958.78
2022-12-03T03:18:08.268Z,958.81
2022-12-03T03:19:08.325Z,958.8
2022-12-03T03:20:08.392Z,958.84
2022-12-03T03:21:08.373Z,958.86
2022-12-03T03:22:08.316Z,958.9
2022-12-03T03:23:08.328Z,958.94
2022-12-03T03:24:08.370Z,958.95
2022-12-03T03:25:08.443Z,958.94
2022-12-03T03:26:08.305Z,958.96
2022-12-03T03:27:08.294Z,958.93
2022-12-03T03:29:08.410Z,958.84
2022-12-03T03:30:08.376Z,958.88
2022-12-03T03:31:09.712Z,958.89
2022-12-03T03:32:08.448Z,958.88
2022-12-03T03:33:08.380Z,958.78
2022-12-03T03:34:08.456Z,958.89
2022-12-03T03:35:08.313Z,958.86
2022-12-03T03:36:08.386Z,958.94
2022-12-03T03:37:08.313Z,958.92
2022-12-03T03:38:08.419Z,958.83
2022-12-03T03:39:08.400Z,958.88
2022-12-03T03:40:08.325Z,958.8
2022-12-03T03:41:08.328Z,958.77
2022-12-03T03:42:08.388Z,958.79
2022-12-03T03:43:08.464Z,958.83
2022-12-03T03:44:08.436Z,958.69
2022-12-03T03:45:08.609Z,958.86
2022-12-03T03:46:08.655Z,958.87
2022-12-03T03:47:08.300Z,958.89
2022-12-03T03:48:08.410Z,958.9
2022-12-03T03:49:08.355Z,958.92
2022-12-03T03:50:08.342Z,958.89
2022-12-03T03:51:09.947Z,958.86
2022-12-03T03:52:08.362Z,958.87
2022-12-03T03:53:08.447Z,958.89
2022-12-03T03:54:08.372Z,958.83
2022-12-03T03:55:08.484Z,958.82
2022-12-03T03:57:08.520Z,958.8
2022-12-03T03:58:08.365Z,958.81
2022-12-03T03:59:08.456Z,958.8
2022-12-03T04:00:09.760Z,958.82
2022-12-03T04:01:08.542Z,958.84
2022-12-03T04:04:08.633Z,958.85
2022-12-03T04:05:08.531Z,958.87
2022-12-03T04:06:08.389Z,958.84
2022-12-03T04:07:08.390Z,958.86
2022-12-03T04:11:08.422Z,958.84
2022-12-03T04:12:08.406Z,958.85
2022-12-03T04:13:08.512Z,958.83
2022-12-03T04:14:08.488Z,958.84
2022-12-03T04:15:08.445Z,958.86
2022-12-03T04:16:08.525Z,958.82
2022-12-03T04:17:08.478Z,958.83
2022-12-03T04:18:08.456Z,958.84
2022-12-03T04:19:08.418Z,958.83
2022-12-03T04:20:08.486Z,958.84
2022-12-03T04:22:08.520Z,958.8
2022-12-03T04:23:08.618Z,958.83
2022-12-03T04:25:08.431Z,958.82
2022-12-03T04:27:08.445Z,958.85
2022-12-03T04:29:08.441Z,958.89
2022-12-03T04:31:08.628Z,958.86
2022-12-03T04:32:08.451Z,958.88
2022-12-03T04:33:08.452Z,958.82
2022-12-03T04:34:08.452Z,958.8
2022-12-03T04:35:08.465Z,958.82
2022-12-03T04:36:08.577Z,958.78
2022-12-03T04:37:08.534Z,958.8
2022-12-03T04:38:08.603Z,958.73
2022-12-03T04:39:08.571Z,958.71
2022-12-03T04:41:08.463Z,958.68
2022-12-03T04:42:08.572Z,958.7
2022-12-03T04:43:08.535Z,958.69
2022-12-03T04:44:08.475Z,958.71
2022-12-03T04:46:08.579Z,958.74
2022-12-03T04:47:08.619Z,958.72
2022-12-03T04:48:08.479Z,958.73
2022-12-03T04:49:08.555Z,958.75
2022-12-03T04:50:08.489Z,958.78
2022-12-03T04:51:08.581Z,958.81
2022-12-03T04:53:08.504Z,958.82
2022-12-03T04:54:08.527Z,958.83
2022-12-03T04:55:08.652Z,958.87
2022-12-03T04:57:08.586Z,958.89
2022-12-03T04:59:12.765Z,958.91
2022-12-03T05:00:08.596Z,958.89
2022-12-03T05:01:08.518Z,958.92
2022-12-03T05:02:08.594Z,958.86
2022-12-03T05:03:08.598Z,958.89
2022-12-03T05:04:10.040Z,958.84
2022-12-03T05:05:08.632Z,958.82
2022-12-03T05:06:08.598Z,958.81
2022-12-03T05:07:08.572Z,958.79
2022-12-03T05:08:08.674Z,958.82
2022-12-03T05:09:08.604Z,958.8
2022-12-03T05:10:08.569Z,958.84
2022-12-03T05:11:08.639Z,958.8
2022-12-03T05:12:08.613Z,958.83
2022-12-03T05:13:08.677Z,958.82
2022-12-03T05:14:08.645Z,958.84
2022-12-03T05:16:09.652Z,958.83
2022-12-03T05:17:08.698Z,958.85
2022-12-03T05:23:08.705Z,958.87
2022-12-03T05:24:08.586Z,958.94
2022-12-03T05:25:08.696Z,958.92
2022-12-03T05:26:08.572Z,958.88
2022-12-03T05:27:08.578Z,958.9
2022-12-03T05:28:09.663Z,958.91
2022-12-03T05:30:08.592Z,958.89
2022-12-03T05:31:08.599Z,958.84
2022-12-03T05:33:08.596Z,958.8
2022-12-03T05:34:08.711Z,958.78
2022-12-03T05:35:08.595Z,958.75
2022-12-03T05:36:08.597Z,958.74
2022-12-03T05:37:08.576Z,958.71
2022-12-03T05:38:08.677Z,958.73
2022-12-03T05:39:08.594Z,958.69
2022-12-03T05:40:08.709Z,958.65
2022-12-03T05:41:08.599Z,958.67
2022-12-03T05:43:08.727Z,958.64
2022-12-03T05:44:08.679Z,958.6
2022-12-03T05:45:08.661Z,958.57
2022-12-03T05:46:08.657Z,958.59
2022-12-03T05:48:08.632Z,958.55
2022-12-03T05:49:08.715Z,958.58
2022-12-03T05:50:08.616Z,958.6
2022-12-03T05:52:08.728Z,958.67
2022-12-03T05:53:08.694Z,958.69
2022-12-03T05:54:08.761Z,958.68
2022-12-03T05:55:08.645Z,958.7
2022-12-03T05:56:08.808Z,958.8
2022-12-03T05:57:08.784Z,958.71
2022-12-03T05:58:08.734Z,958.74
2022-12-03T05:59:08.642Z,958.7
2022-12-03T06:00:08.670Z,958.68
2022-12-03T06:01:08.741Z,958.69
2022-12-03T06:02:08.710Z,958.67
2022-12-03T06:03:08.748Z,958.69
2022-12-03T06:04:08.837Z,958.68
2022-12-03T06:05:08.710Z,958.74
2022-12-03T06:07:12.447Z,958.72
2022-12-03T06:08:09.040Z,958.73
2022-12-03T06:09:08.670Z,958.71
2022-12-03T06:10:08.755Z,958.76
2022-12-03T06:11:08.668Z,958.77
2022-12-03T06:12:08.667Z,958.8
2022-12-03T06:13:08.750Z,958.78
2022-12-03T06:14:09.869Z,958.81
2022-12-03T06:16:08.817Z,958.8
2022-12-03T06:18:08.799Z,958.74
2022-12-03T06:20:08.713Z,958.7
2022-12-03T06:21:08.791Z,958.71
2022-12-03T06:24:08.753Z,958.68
2022-12-03T06:25:08.712Z,958.73
2022-12-03T06:26:08.733Z,958.68
2022-12-03T06:27:08.812Z,958.64
2022-12-03T06:28:08.776Z,958.62
2022-12-03T06:29:08.711Z,958.61
2022-12-03T06:30:08.815Z,958.6
2022-12-03T06:31:08.959Z,958.63
2022-12-03T06:32:08.851Z,958.68
2022-12-03T06:33:08.819Z,958.66
2022-12-03T06:34:08.723Z,958.67
2022-12-03T06:36:08.731Z,958.7
2022-12-03T06:38:08.865Z,958.66
2022-12-03T06:39:08.821Z,958.68
2022-12-03T06:40:08.899Z,958.62
2022-12-03T06:41:08.858Z,958.59
2022-12-03T06:42:08.829Z,958.6
2022-12-03T06:43:08.795Z,958.59
2022-12-03T06:44:08.746Z,958.61
2022-12-03T06:46:09.169Z,958.62
2022-12-03T06:47:08.759Z,958.63
2022-12-03T06:48:08.752Z,958.64
2022-12-03T06:49:08.896Z,958.61
2022-12-03T06:50:08.874Z,958.62
2022-12-03T06:51:08.835Z,958.65
2022-12-03T06:52:08.763Z,958.7
2022-12-03T06:53:08.931Z,958.68
2022-12-03T06:54:08.770Z,958.7
2022-12-03T06:56:08.877Z,958.68
2022-12-03T06:57:08.839Z,958.64
2022-12-03T06:58:08.921Z,958.67
2022-12-03T06:59:08.888Z,958.62
2022-12-03T07:00:08.850Z,958.7
2022-12-03T07:01:08.795Z,958.67
2022-12-03T07:02:08.827Z,958.66
2022-12-03T07:03:08.820Z,958.64
2022-12-03T07:04:08.806Z,958.67
2022-12-03T07:05:08.886Z,958.65
2022-12-03T07:06:08.975Z,958.7
2022-12-03T07:08:08.975Z,958.69
2022-12-03T07:09:08.887Z,958.71
2022-12-03T07:10:08.823Z,958.73
2022-12-03T07:11:08.898Z,958.77
2022-12-03T07:12:08.960Z,958.78
2022-12-03T07:13:08.930Z,958.74
2022-12-03T07:14:08.823Z,958.79
2022-12-03T07:15:10.138Z,958.72
2022-12-03T07:16:08.837Z,958.73
2022-12-03T07:17:08.900Z,958.75
2022-12-03T07:18:08.970Z,958.74
2022-12-03T07:20:08.829Z,958.73
2022-12-03T07:21:08.878Z,958.75
2022-12-03T07:22:08.942Z,958.76
2022-12-03T07:23:08.833Z,958.73
2022-12-03T07:24:08.987Z,958.75
2022-12-03T07:26:08.914Z,958.77
2022-12-03T07:27:08.857Z,958.74
2022-12-03T07:28:08.955Z,958.68
2022-12-03T07:29:08.924Z,958.74
2022-12-03T07:30:08.993Z,958.7
2022-12-03T07:32:08.854Z,958.62
2022-12-03T07:33:08.998Z,958.63
2022-12-03T07:34:08.960Z,958.61
2022-12-03T07:35:08.871Z,958.6
2022-12-03T07:36:08.877Z,958.63
2022-12-03T07:37:08.871Z,958.66
2022-12-03T07:39:09.007Z,958.67
2022-12-03T07:40:08.968Z,958.68
2022-12-03T07:41:08.940Z,958.65
2022-12-03T07:42:08.887Z,958.69
2022-12-03T07:43:08.893Z,958.73
2022-12-03T07:44:13.926Z,958.71
2022-12-03T07:45:08.904Z,958.7
2022-12-03T07:46:08.913Z,958.76
2022-12-03T07:47:09.059Z,958.77
2022-12-03T07:48:08.889Z,958.74
2022-12-03T07:49:08.899Z,958.71
2022-12-03T07:50:09.048Z,958.74
2022-12-03T07:51:12.889Z,958.7
2022-12-03T07:53:09.156Z,958.72
2022-12-03T07:54:09.018Z,958.73
2022-12-03T07:55:08.988Z,958.71
2022-12-03T07:56:10.850Z,958.76
2022-12-03T07:57:09.026Z,958.75
2022-12-03T07:58:08.986Z,958.78
2022-12-03T07:59:09.058Z,958.8
2022-12-03T08:00:09.028Z,958.76
2022-12-03T08:02:09.026Z,958.74
2022-12-03T08:03:09.027Z,958.78
2022-12-03T08:04:08.923Z,958.76
2022-12-03T08:05:08.923Z,958.79
2022-12-03T08:06:09.030Z,958.81
2022-12-03T08:07:09.004Z,958.77
2022-12-03T08:08:09.151Z,958.78
2022-12-03T08:09:12.016Z,958.82
2022-12-03T08:10:09.120Z,958.79
2022-12-03T08:11:09.078Z,958.8
2022-12-03T08:12:09.054Z,958.74
2022-12-03T08:13:09.013Z,958.68
2022-12-03T08:14:08.952Z,958.67
2022-12-03T08:16:09.157Z,958.63
2022-12-03T08:19:09.165Z,958.67
2022-12-03T08:20:08.990Z,958.65
2022-12-03T08:21:09.061Z,958.7
2022-12-03T08:22:09.953Z,958.68
2022-12-03T08:24:09.068Z,958.66
2022-12-03T08:25:08.985Z,958.7
2022-12-03T08:26:09.105Z,958.71
2022-12-03T08:27:09.064Z,958.66
2022-12-03T08:29:09.099Z,958.69
2022-12-03T08:30:09.000Z,958.68
2022-12-03T08:31:09.007Z,958.65
2022-12-03T08:32:09.133Z,958.64
2022-12-03T08:34:09.009Z,958.69
2022-12-03T08:35:09.117Z,958.7
2022-12-03T08:36:09.071Z,958.69
2022-12-03T08:38:09.115Z,958.67
2022-12-03T08:40:09.028Z,958.69
2022-12-03T08:41:09.014Z,958.68
2022-12-03T08:42:13.500Z,958.71
2022-12-03T08:43:09.121Z,958.68
2022-12-03T08:44:09.018Z,958.67
2022-12-03T08:46:09.240Z,958.64
2022-12-03T08:47:09.119Z,958.66
2022-12-03T08:48:09.191Z,958.67
2022-12-03T08:51:09.284Z,958.7
2022-12-03T08:53:09.059Z,958.69
2022-12-03T08:54:09.201Z,958.7
2022-12-03T08:57:09.130Z,958.72
2022-12-03T08:58:09.189Z,958.75
2022-12-03T08:59:09.136Z,958.77
2022-12-03T09:00:09.215Z,958.73
2022-12-03T09:02:09.142Z,958.69
2022-12-03T09:03:09.075Z,958.71
2022-12-03T09:04:09.140Z,958.65
2022-12-03T09:05:09.141Z,958.67
2022-12-03T09:06:10.166Z,958.65
2022-12-03T09:08:09.210Z,958.64
2022-12-03T09:09:09.230Z,958.66
2022-12-03T09:10:09.186Z,958.67
2022-12-03T09:11:09.094Z,958.6
2022-12-03T09:12:09.088Z,958.67
2022-12-03T09:13:09.192Z,958.64
2022-12-03T09:14:11.466Z,958.6
2022-12-03T09:15:09.104Z,958.61
2022-12-03T09:18:09.156Z,958.6
2022-12-03T09:20:09.176Z,958.57
2022-12-03T09:21:11.008Z,958.54
2022-12-03T09:22:09.208Z,958.53
2022-12-03T09:25:09.261Z,958.54
2022-12-03T09:26:09.153Z,958.55
2022-12-03T09:27:09.248Z,958.54
2022-12-03T09:28:09.220Z,958.55
2022-12-03T09:29:12.048Z,958.58
2022-12-03T09:30:09.134Z,958.55
2022-12-03T09:31:09.221Z,958.56
2022-12-03T09:32:12.540Z,958.55
2022-12-03T09:33:09.389Z,958.58
2022-12-03T09:34:09.153Z,958.55
2022-12-03T09:35:09.307Z,958.49
2022-12-03T09:36:09.267Z,958.46
2022-12-03T09:37:09.139Z,958.42
2022-12-03T09:39:09.268Z,958.4
2022-12-03T09:40:09.251Z,958.39
2022-12-03T09:41:09.167Z,958.44
2022-12-03T09:42:09.161Z,958.48
2022-12-03T09:43:09.161Z,958.47
2022-12-03T09:44:15.738Z,958.49
2022-12-03T09:45:09.395Z,958.53
2022-12-03T09:46:09.245Z,958.58
2022-12-03T09:47:09.210Z,958.62
2022-12-03T09:48:09.284Z,958.61
2022-12-03T09:49:14.101Z,958.65
2022-12-03T09:50:09.202Z,958.6
2022-12-03T09:51:09.186Z,958.59
2022-12-03T09:52:09.243Z,958.6
2022-12-03T09:53:09.183Z,958.57
2022-12-03T09:54:09.276Z,958.56
2022-12-03T09:56:09.239Z,958.53
2022-12-03T09:57:09.290Z,958.52
2022-12-03T09:58:09.356Z,958.53
2022-12-03T09:59:09.323Z,958.48
2022-12-03T10:00:09.292Z,958.53
2022-12-03T10:01:09.395Z,958.39
2022-12-03T10:02:09.374Z,958.49
2022-12-03T10:03:09.297Z,958.44
2022-12-03T10:04:09.380Z,958.39
2022-12-03T10:05:09.377Z,958.36
2022-12-03T10:06:09.293Z,958.32
2022-12-03T10:07:09.222Z,958.29
2022-12-03T10:08:09.313Z,958.27
2022-12-03T10:09:09.233Z,958.25
2022-12-03T10:12:09.304Z,958.24
2022-12-03T10:13:09.394Z,958.19
2022-12-03T10:14:09.346Z,958.18
2022-12-03T10:15:09.312Z,958.21
2022-12-03T10:17:09.305Z,958.2
2022-12-03T10:18:09.246Z,958.15
2022-12-03T10:19:09.376Z,958.17
2022-12-03T10:20:09.357Z,958.18
2022-12-03T10:21:09.327Z,958.14
2022-12-03T10:22:09.382Z,958.15
2022-12-03T10:23:09.365Z,958.09
2022-12-03T10:24:09.393Z,958.08
2022-12-03T10:25:09.390Z,957.99
2022-12-03T10:26:09.277Z,958.04
2022-12-03T10:27:09.433Z,957.97
2022-12-03T10:28:09.405Z,957.99
2022-12-03T10:29:09.267Z,958.04
2022-12-03T10:30:09.284Z,958.09
2022-12-03T10:31:09.408Z,958.1
2022-12-03T10:33:11.302Z,958.11
2022-12-03T10:34:09.411Z,958.15
2022-12-03T10:35:09.302Z,958.16
2022-12-03T10:37:09.510Z,958.13
2022-12-03T10:38:09.369Z,958.1
2022-12-03T10:39:09.446Z,958.06
2022-12-03T10:40:09.457Z,958.01
2022-12-03T10:41:09.385Z,957.95
2022-12-03T10:42:09.308Z,957.88
2022-12-03T10:43:09.431Z,957.85
2022-12-03T10:44:09.382Z,957.81
2022-12-03T10:45:10.609Z,957.82
2022-12-03T10:46:09.314Z,957.85
2022-12-03T10:47:09.386Z,957.82
2022-12-03T10:48:09.452Z,957.78
2022-12-03T10:49:09.309Z,957.79
2022-12-03T10:51:10.614Z,957.72
2022-12-03T10:52:09.458Z,957.7
2022-12-03T10:55:09.535Z,957.67
2022-12-03T10:56:09.358Z,957.61
2022-12-03T10:57:09.334Z,957.63
2022-12-03T10:58:09.441Z,957.61
2022-12-03T10:59:09.507Z,957.6
2022-12-03T11:00:09.473Z,957.57
2022-12-03T11:01:09.515Z,957.53
2022-12-03T11:02:09.459Z,957.5
2022-12-03T11:04:09.550Z,957.47
2022-12-03T11:06:09.377Z,957.49
2022-12-03T11:07:09.444Z,957.48
2022-12-03T11:08:09.375Z,957.49
2022-12-03T11:09:09.516Z,957.46
2022-12-03T11:10:09.447Z,957.43
2022-12-03T11:11:09.367Z,957.4
2022-12-03T11:12:09.482Z,957.38
2022-12-03T11:13:09.462Z,957.4
2022-12-03T11:14:10.759Z,957.34
2022-12-03T11:15:09.490Z,957.38
2022-12-03T11:16:09.512Z,957.39
2022-12-03T11:18:09.390Z,957.35
2022-12-03T11:19:09.462Z,957.3
2022-12-03T11:20:09.388Z,957.28
2022-12-03T11:21:09.392Z,957.32
2022-12-03T11:22:09.399Z,957.31
2022-12-03T11:23:09.540Z,957.36
2022-12-03T11:25:09.470Z,957.41
2022-12-03T11:26:11.157Z,957.43
2022-12-03T11:27:09.503Z,957.34
2022-12-03T11:28:09.484Z,957.45
2022-12-03T11:29:09.539Z,957.51
2022-12-03T11:30:09.616Z,957.49
2022-12-03T11:31:09.682Z,957.52
2022-12-03T11:32:09.373Z,957.45
2022-12-03T11:33:09.418Z,957.49
2022-12-03T11:34:09.578Z,957.48
2022-12-03T11:35:09.433Z,957.51
2022-12-03T11:36:09.415Z,957.48
2022-12-03T11:37:09.425Z,957.49
2022-12-03T11:38:09.551Z,957.46
2022-12-03T11:39:09.520Z,957.41
2022-12-03T11:40:09.436Z,957.35
2022-12-03T11:41:09.557Z,957.36
2022-12-03T11:43:09.445Z,957.31
2022-12-03T11:44:09.567Z,957.29
2022-12-03T11:45:09.488Z,957.31
2022-12-03T11:46:09.558Z,957.28
2022-12-03T11:47:09.564Z,957.24
2022-12-03T11:48:09.461Z,957.22
2022-12-03T11:49:09.602Z,957.27
2022-12-03T11:50:09.467Z,957.24
2022-12-03T11:52:09.605Z,957.2
2022-12-03T11:53:09.454Z,957.19
2022-12-03T11:54:09.541Z,957.2
2022-12-03T11:55:10.915Z,957.19
2022-12-03T11:56:09.575Z,957.16
2022-12-03T11:57:09.474Z,957.14
2022-12-03T11:58:09.483Z,957.13
2022-12-03T11:59:09.593Z,957.11
2022-12-03T12:00:09.556Z,957.06
2022-12-03T12:03:09.622Z,957.02
2022-12-03T12:04:09.527Z,957
2022-12-03T12:05:09.590Z,957.04
2022-12-03T12:07:09.780Z,957.09
2022-12-03T12:08:09.602Z,957.12
2022-12-03T12:09:10.487Z,957.09
2022-12-03T12:10:09.639Z,957.03
2022-12-03T12:11:09.602Z,956.84
2022-12-03T12:12:10.487Z,956.98
2022-12-03T12:13:09.524Z,956.95
2022-12-03T12:14:09.635Z,956.97
2022-12-03T12:15:10.501Z,956.96
2022-12-03T12:16:09.671Z,957.01
2022-12-03T12:17:09.623Z,956.99
2022-12-03T12:19:09.648Z,956.97
2022-12-03T12:20:09.614Z,956.99
2022-12-03T12:21:09.700Z,956.98
2022-12-03T12:22:09.657Z,957.02
2022-12-03T12:23:09.601Z,956.97
2022-12-03T12:25:09.650Z,956.99
2022-12-03T12:26:09.548Z,956.94
2022-12-03T12:27:09.561Z,956.95
2022-12-03T12:28:09.559Z,956.91
2022-12-03T12:29:09.618Z,956.87
2022-12-03T12:30:09.689Z,956.85
2022-12-03T12:31:09.620Z,956.81
2022-12-03T12:33:09.698Z,956.82
2022-12-03T12:34:09.662Z,956.83
2022-12-03T12:35:09.627Z,956.82
2022-12-03T12:36:09.551Z,956.78
2022-12-03T12:37:09.672Z,956.8
2022-12-03T12:39:09.595Z,956.83
2022-12-03T12:40:09.684Z,956.84
2022-12-03T12:41:10.625Z,956.81
2022-12-03T12:42:09.586Z,956.78
2022-12-03T12:43:13.450Z,956.76
2022-12-03T12:44:09.691Z,956.74
2022-12-03T12:45:09.712Z,956.7
2022-12-03T12:46:38.955Z,956.67
2022-12-03T12:47:09.793Z,956.74
2022-12-03T12:48:09.718Z,956.69
2022-12-03T12:49:09.677Z,956.73
2022-12-03T12:50:09.607Z,956.7
2022-12-03T12:51:09.602Z,956.71
2022-12-03T12:52:09.692Z,956.72
2022-12-03T12:53:09.658Z,956.71
2022-12-03T12:54:09.715Z,956.73
2022-12-03T12:55:09.699Z,956.7
2022-12-03T12:56:09.756Z,956.68
2022-12-03T12:57:09.718Z,956.66
2022-12-03T12:58:09.717Z,956.65
2022-12-03T13:00:09.827Z,956.66
2022-12-03T13:01:09.761Z,956.7
2022-12-03T13:02:10.310Z,956.74
2022-12-03T13:04:09.698Z,956.73
2022-12-03T13:06:09.785Z,956.74
2022-12-03T13:07:09.640Z,956.69
2022-12-03T13:08:10.862Z,956.66
2022-12-03T13:09:09.752Z,956.65
2022-12-03T13:10:09.803Z,956.64
2022-12-03T13:11:09.647Z,956.65
2022-12-03T13:13:09.813Z,956.63
2022-12-03T13:14:09.786Z,956.6
2022-12-03T13:15:09.767Z,956.52
2022-12-03T13:16:09.677Z,956.55
2022-12-03T13:18:09.887Z,956.54
2022-12-03T13:19:09.692Z,956.57
2022-12-03T13:20:10.258Z,956.55
2022-12-03T13:21:09.689Z,956.53
2022-12-03T13:22:09.731Z,956.56
2022-12-03T13:23:09.795Z,956.55
2022-12-03T13:24:09.755Z,956.58
2022-12-03T13:25:09.691Z,956.56
2022-12-03T13:26:27.504Z,956.54
2022-12-03T13:27:09.922Z,956.53
2022-12-03T13:28:09.846Z,956.54
2022-12-03T13:29:09.796Z,956.52
2022-12-03T13:30:09.765Z,956.54
2022-12-03T13:31:09.873Z,956.51
2022-12-03T13:32:09.739Z,956.5
2022-12-03T13:33:09.770Z,956.46
2022-12-03T13:35:09.809Z,956.54
2022-12-03T13:36:09.776Z,956.52
2022-12-03T13:37:09.708Z,956.5
2022-12-03T13:38:09.702Z,956.51
2022-12-03T13:39:09.712Z,956.48
2022-12-03T13:40:10.917Z,956.44
2022-12-03T13:41:09.814Z,956.42
2022-12-03T13:42:09.787Z,956.39
2022-12-03T13:43:09.841Z,956.42
2022-12-03T13:44:09.720Z,956.36
2022-12-03T13:45:09.801Z,956.45
2022-12-03T13:46:09.814Z,956.49
2022-12-03T13:48:09.761Z,956.46
2022-12-03T13:49:09.866Z,956.47
2022-12-03T13:51:09.744Z,956.44
2022-12-03T13:52:09.754Z,956.43
2022-12-03T13:54:14.370Z,956.46
2022-12-03T13:55:09.754Z,956.5
2022-12-03T13:56:09.854Z,956.48
2022-12-03T13:57:09.907Z,956.47
2022-12-03T13:59:09.845Z,956.46
2022-12-03T14:00:09.767Z,956.47
2022-12-03T14:01:09.800Z,956.44
2022-12-03T14:02:09.947Z,956.46
2022-12-03T14:03:09.773Z,956.45
2022-12-03T14:04:09.770Z,956.44
2022-12-03T14:05:09.863Z,956.45
2022-12-03T14:06:09.922Z,956.39
2022-12-03T14:07:09.884Z,956.37
2022-12-03T14:08:09.867Z,956.35
2022-12-03T14:09:09.788Z,956.36
2022-12-03T14:10:09.944Z,956.32
2022-12-03T14:11:09.853Z,956.34
2022-12-03T14:12:09.922Z,956.38
2022-12-03T14:13:09.931Z,956.43
2022-12-03T14:14:09.859Z,956.45
2022-12-03T14:15:09.808Z,956.41
2022-12-03T14:16:09.963Z,956.4
2022-12-03T14:17:09.893Z,956.42
2022-12-03T14:18:09.801Z,956.44
2022-12-03T14:19:09.815Z,956.48
2022-12-03T14:20:09.883Z,956.45
2022-12-03T14:22:09.905Z,956.44
2022-12-03T14:23:09.824Z,956.46
2022-12-03T14:24:09.824Z,956.43
2022-12-03T14:25:09.907Z,956.42
2022-12-03T14:26:09.981Z,956.44
2022-12-03T14:27:09.823Z,956.39
2022-12-03T14:28:09.915Z,956.42
2022-12-03T14:29:10.253Z,956.48
2022-12-03T14:30:09.948Z,956.44
2022-12-03T14:31:09.929Z,956.46
2022-12-03T14:32:12.202Z,956.41
2022-12-03T14:33:09.954Z,956.42
2022-12-03T14:35:10.339Z,956.47
2022-12-03T14:38:11.687Z,956.51
2022-12-03T14:39:09.900Z,956.54
2022-12-03T14:40:09.926Z,956.45
2022-12-03T14:41:09.947Z,956.46
2022-12-03T14:42:09.963Z,956.49
2022-12-03T14:43:09.938Z,956.46
2022-12-03T14:44:09.888Z,956.47